createdAt,value
2022-08-17T00:00:33.284Z,18.50
2022-08-17T00:03:26.706Z,18.48
2022-08-17T00:06:21.873Z,19.75
2022-08-17T00:09:07.072Z,18.63
2022-08-17T00:12:40.661Z,18.85
2022-08-17T00:14:56.957Z,22.02
2022-08-17T00:17:42.645Z,17.27
2022-08-17T00:20:30.511Z,19.25
2022-08-17T00:23:19.446Z,21.42
2022-08-17T00:26:04.679Z,17.95
2022-08-17T00:28:50.069Z,16.02
2022-08-17T00:31:37.509Z,16.17
2022-08-17T00:34:22.889Z,17.65
2022-08-17T00:37:08.344Z,16.88
2022-08-17T00:39:53.809Z,18.20
2022-08-17T00:42:40.246Z,16.83
2022-08-17T00:45:26.727Z,18.35
2022-08-17T00:48:29.340Z,18.35
2022-08-17T00:51:23.080Z,18.35
2022-08-17T00:54:25.450Z,17.92
2022-08-17T00:57:24.440Z,18.65
2022-08-17T01:00:19.033Z,18.00
2022-08-17T01:03:15.242Z,19.55
2022-08-17T01:06:03.069Z,17.58
2022-08-17T01:08:49.795Z,19.13
2022-08-17T01:11:44.190Z,19.10
2022-08-17T01:14:29.285Z,17.77
2022-08-17T01:17:14.759Z,19.83
2022-08-17T01:20:00.078Z,19.00
2022-08-17T01:22:45.520Z,16.92
2022-08-17T01:25:31.069Z,17.65
2022-08-17T01:28:33.209Z,19.65
2022-08-17T01:31:22.447Z,19.13
2022-08-17T01:34:10.558Z,21.98
2022-08-17T01:36:55.557Z,17.58
2022-08-17T01:39:49.501Z,18.60
2022-08-17T01:42:48.369Z,18.38
2022-08-17T01:45:39.083Z,19.00
2022-08-17T01:48:29.288Z,18.13
2022-08-17T01:51:15.418Z,17.55
2022-08-17T01:54:05.278Z,18.17
2022-08-17T01:56:52.120Z,20.02
2022-08-17T01:59:37.390Z,19.27
2022-08-17T02:02:31.395Z,18.15
2022-08-17T02:05:16.927Z,21.48
2022-08-17T02:08:03.068Z,18.45
2022-08-17T02:10:51.513Z,24.02
2022-08-17T02:13:36.606Z,17.50
2022-08-17T02:16:22.198Z,19.75
2022-08-17T02:19:10.717Z,21.38
2022-08-17T02:21:55.806Z,19.65
2022-08-17T02:25:00.888Z,17.88
2022-08-17T02:27:46.765Z,18.75
2022-08-17T02:31:00.816Z,18.85
2022-08-17T02:33:42.644Z,16.65
2022-08-17T02:36:29.070Z,19.73
2022-08-17T02:39:14.223Z,19.73
2022-08-17T02:42:02.114Z,17.23
2022-08-17T02:44:47.610Z,19.75
2022-08-17T02:47:33.520Z,18.95
2022-08-17T02:50:22.631Z,17.90
2022-08-17T02:53:08.072Z,20.83
2022-08-17T02:55:53.437Z,17.70
2022-08-17T02:58:38.827Z,18.67
2022-08-17T03:01:24.494Z,16.98
2022-08-17T03:04:09.772Z,19.25
2022-08-17T03:06:55.060Z,18.40
2022-08-17T03:09:40.549Z,17.58
2022-08-17T03:12:29.129Z,22.30
2022-08-17T03:15:19.129Z,22.70
2022-08-17T03:18:04.326Z,19.58
2022-08-17T03:20:49.225Z,19.92
2022-08-17T03:23:34.987Z,19.15
2022-08-17T03:26:20.252Z,23.73
2022-08-17T03:29:05.714Z,18.55
2022-08-17T03:31:51.199Z,19.95
2022-08-17T03:34:36.177Z,19.60
2022-08-17T03:37:20.985Z,18.95
2022-08-17T03:40:08.359Z,20.08
2022-08-17T03:42:53.585Z,19.25
2022-08-17T03:45:39.045Z,17.40
2022-08-17T03:48:24.928Z,18.30
2022-08-17T03:51:17.365Z,17.05
2022-08-17T03:54:02.614Z,20.30
2022-08-17T03:57:02.728Z,18.92
2022-08-17T03:59:48.200Z,17.55
2022-08-17T04:02:33.996Z,17.75
2022-08-17T04:05:19.764Z,21.63
2022-08-17T04:08:05.612Z,20.55
2022-08-17T04:10:51.489Z,25.95
2022-08-17T04:13:36.910Z,19.88
2022-08-17T04:16:25.794Z,20.50
2022-08-17T04:19:11.102Z,17.08
2022-08-17T04:21:57.030Z,22.10
2022-08-17T04:24:42.259Z,22.17
2022-08-17T04:27:27.652Z,17.95
2022-08-17T04:30:13.258Z,20.75
2022-08-17T04:33:11.293Z,19.67
2022-08-17T04:36:00.133Z,20.52
2022-08-17T04:38:45.857Z,18.75
2022-08-17T04:41:30.853Z,21.77
2022-08-17T04:44:36.772Z,19.95
2022-08-17T04:47:21.389Z,19.83
2022-08-17T04:50:07.377Z,22.33
2022-08-17T04:52:52.509Z,21.70
2022-08-17T04:55:38.013Z,19.70
2022-08-17T04:58:23.181Z,20.88
2022-08-17T05:01:09.236Z,21.63
2022-08-17T05:03:57.241Z,21.65
2022-08-17T05:06:43.500Z,20.17
2022-08-17T05:09:28.450Z,21.73
2022-08-17T05:12:15.541Z,21.98
2022-08-17T05:15:00.874Z,24.73
2022-08-17T05:17:46.761Z,18.23
2022-08-17T05:20:33.341Z,20.25
2022-08-17T05:23:20.469Z,22.42
2022-08-17T05:26:06.249Z,20.10
2022-08-17T05:28:58.538Z,20.95
2022-08-17T05:31:45.084Z,23.55
2022-08-17T05:34:30.121Z,20.13
2022-08-17T05:37:15.494Z,20.92
2022-08-17T05:40:01.126Z,22.70
2022-08-17T05:42:47.055Z,22.95
2022-08-17T05:45:54.505Z,24.10
2022-08-17T05:48:42.166Z,22.38
2022-08-17T05:51:56.614Z,27.30
2022-08-17T05:55:20.440Z,18.10
2022-08-17T05:58:17.602Z,20.55
2022-08-17T06:01:16.833Z,22.52
2022-08-17T06:04:39.714Z,20.85
2022-08-17T06:07:49.528Z,25.30
2022-08-17T06:10:50.087Z,18.50
2022-08-17T06:13:41.243Z,16.13
2022-08-17T06:16:34.758Z,16.45
2022-08-17T06:19:31.291Z,18.13
2022-08-17T06:22:20.145Z,17.80
2022-08-17T06:25:14.357Z,17.80
2022-08-17T06:28:07.931Z,15.15
2022-08-17T06:31:02.150Z,18.77
2022-08-17T06:33:47.238Z,18.25
2022-08-17T06:36:48.288Z,15.68
2022-08-17T06:39:39.847Z,17.83
2022-08-17T06:43:02.424Z,20.40
2022-08-17T06:45:50.173Z,15.68
2022-08-17T06:48:40.404Z,18.30
2022-08-17T06:51:35.746Z,19.45
2022-08-17T06:54:30.946Z,18.92
2022-08-17T06:57:27.625Z,21.10
2022-08-17T07:00:16.267Z,17.65
2022-08-17T07:03:13.899Z,19.58
2022-08-17T07:06:05.543Z,18.75
2022-08-17T07:09:03.722Z,14.98
2022-08-17T07:11:48.721Z,15.30
2022-08-17T07:14:48.386Z,18.48
2022-08-17T07:17:46.522Z,15.15
2022-08-17T07:20:43.389Z,18.23
2022-08-17T07:23:45.363Z,16.10
2022-08-17T07:26:30.128Z,16.90
2022-08-17T07:29:18.577Z,17.60
2022-08-17T07:32:04.961Z,17.23
2022-08-17T07:35:08.185Z,13.43
2022-08-17T07:38:26.906Z,12.52
2022-08-17T07:41:11.953Z,12.18
2022-08-17T07:43:57.083Z,13.25
2022-08-17T07:46:53.722Z,12.57
2022-08-17T07:49:44.651Z,13.65
2022-08-17T07:52:51.714Z,16.27
2022-08-17T07:55:37.288Z,13.88
2022-08-17T07:58:23.769Z,13.82
2022-08-17T08:01:14.468Z,14.45
2022-08-17T08:04:00.382Z,11.77
2022-08-17T08:06:51.524Z,16.85
2022-08-17T08:09:44.540Z,15.93
2022-08-17T08:12:36.718Z,13.55
2022-08-17T08:15:25.869Z,14.00
2022-08-17T08:18:53.587Z,14.27
2022-08-17T08:21:47.383Z,13.52
2022-08-17T08:24:50.804Z,13.20
2022-08-17T08:27:53.089Z,17.90
2022-08-17T08:30:45.669Z,13.85
2022-08-17T08:33:33.803Z,14.50
2022-08-17T08:37:15.992Z,12.43
2022-08-17T08:40:35.600Z,12.88
2022-08-17T08:43:44.063Z,10.00
2022-08-17T08:46:35.067Z,11.38
2022-08-17T08:50:03.580Z,11.32
2022-08-17T08:53:03.376Z,12.68
2022-08-17T08:55:58.203Z,11.73
2022-08-17T08:58:49.498Z,10.75
2022-08-17T09:01:59.408Z,14.50
2022-08-17T09:05:10.529Z,11.38
2022-08-17T09:08:04.547Z,11.48
2022-08-17T09:11:01.884Z,10.68
2022-08-17T09:13:55.571Z,15.77
2022-08-17T09:16:45.373Z,10.95
2022-08-17T09:19:38.523Z,9.70
2022-08-17T09:22:27.924Z,12.60
2022-08-17T09:25:23.935Z,12.23
2022-08-17T09:28:19.242Z,8.75
2022-08-17T09:31:11.964Z,10.82
2022-08-17T09:33:59.876Z,11.93
2022-08-17T09:37:11.377Z,9.32
2022-08-17T09:40:17.246Z,10.35
2022-08-17T09:43:25.113Z,10.55
2022-08-17T09:46:19.568Z,9.20
2022-08-17T09:49:25.380Z,18.10
2022-08-17T09:52:23.230Z,11.02
2022-08-17T09:55:09.443Z,6.40
2022-08-17T09:58:09.591Z,7.88
2022-08-17T10:01:14.106Z,9.00
2022-08-17T10:04:27.444Z,7.78
2022-08-17T10:07:31.194Z,8.05
2022-08-17T10:10:25.313Z,10.65
2022-08-17T10:13:19.099Z,6.85
2022-08-17T10:16:14.852Z,8.88
2022-08-17T10:19:10.283Z,10.93
2022-08-17T10:22:01.539Z,9.75
2022-08-17T10:25:21.067Z,13.27
2022-08-17T10:28:19.687Z,10.43
2022-08-17T10:34:48.559Z,11.75
2022-08-17T10:37:57.349Z,12.68
2022-08-17T10:40:58.348Z,8.40
2022-08-17T10:44:38.974Z,10.25
2022-08-17T10:47:19.425Z,8.13
2022-08-17T10:50:45.609Z,9.35
2022-08-17T10:53:36.439Z,8.25
2022-08-17T10:56:38.185Z,10.10
2022-08-17T10:59:35.368Z,11.82
2022-08-17T11:02:38.697Z,8.63
2022-08-17T11:05:43.696Z,13.00
2022-08-17T11:08:44.644Z,9.60
2022-08-17T11:11:58.599Z,9.05
2022-08-17T11:15:17.790Z,11.75
2022-08-17T11:18:40.908Z,9.32
2022-08-17T11:22:13.264Z,10.48
2022-08-17T11:25:12.630Z,12.05
2022-08-17T11:28:09.175Z,10.40
2022-08-17T11:31:38.787Z,11.90
2022-08-17T11:34:30.914Z,14.95
2022-08-17T11:37:21.936Z,11.45
2022-08-17T11:40:19.793Z,13.43
2022-08-17T11:43:31.022Z,7.78
2022-08-17T11:46:41.465Z,11.63
2022-08-17T11:49:41.772Z,10.65
2022-08-17T11:52:47.017Z,8.20
2022-08-17T11:55:37.494Z,7.55
2022-08-17T11:58:34.537Z,9.25
2022-08-17T12:01:22.830Z,8.07
2022-08-17T12:04:20.696Z,11.13
2022-08-17T12:07:20.557Z,12.00
2022-08-17T12:10:05.934Z,9.43
2022-08-17T12:12:53.952Z,8.10
2022-08-17T12:15:43.806Z,9.13
2022-08-17T12:18:32.170Z,8.73
2022-08-17T12:21:33.189Z,10.50
2022-08-17T12:24:31.412Z,14.27
2022-08-17T12:28:04.939Z,10.98
2022-08-17T12:30:29.981Z,10.77
2022-08-17T12:33:25.273Z,11.10
2022-08-17T12:36:15.752Z,10.77
2022-08-17T12:39:14.512Z,9.13
2022-08-17T12:42:02.537Z,10.90
2022-08-17T12:44:50.128Z,9.15
2022-08-17T12:47:37.782Z,11.32
2022-08-17T12:50:28.495Z,14.75
2022-08-17T12:53:23.952Z,8.48
2022-08-17T12:56:13.145Z,11.43
2022-08-17T12:58:58.622Z,9.10
2022-08-17T13:01:44.259Z,11.07
2022-08-17T13:04:31.213Z,11.52
2022-08-17T13:07:33.615Z,10.55
2022-08-17T13:10:33.148Z,10.57
2022-08-17T13:13:26.025Z,11.15
2022-08-17T13:16:14.235Z,10.43
2022-08-17T13:19:41.170Z,9.70
2022-08-17T13:22:28.747Z,9.75
2022-08-17T13:25:16.560Z,10.13
2022-08-17T13:28:03.083Z,11.02
2022-08-17T13:30:48.357Z,10.52
2022-08-17T13:33:43.457Z,11.85
2022-08-17T13:36:30.458Z,9.15
2022-08-17T13:39:22.206Z,9.50
2022-08-17T13:42:31.778Z,12.05
2022-08-17T13:45:36.227Z,11.77
2022-08-17T13:48:30.473Z,14.68
2022-08-17T13:51:24.420Z,10.57
2022-08-17T13:54:19.486Z,14.23
2022-08-17T13:57:21.490Z,11.20
2022-08-17T14:00:16.017Z,9.05
2022-08-17T14:03:04.163Z,11.75
2022-08-17T14:05:51.276Z,12.77
2022-08-17T14:08:36.936Z,12.98
2022-08-17T14:11:23.566Z,13.38
2022-08-17T14:14:09.034Z,12.50
2022-08-17T14:16:55.116Z,12.23
2022-08-17T14:19:40.169Z,13.50
2022-08-17T14:22:32.453Z,14.15
2022-08-17T14:25:25.341Z,9.38
2022-08-17T14:28:10.741Z,9.68
2022-08-17T14:30:55.677Z,13.20
2022-08-17T14:33:41.069Z,9.73
2022-08-17T14:36:26.506Z,9.07
2022-08-17T14:39:13.118Z,11.25
2022-08-17T14:41:58.335Z,9.13
2022-08-17T14:44:43.837Z,11.48
2022-08-17T14:47:29.079Z,8.55
2022-08-17T14:50:15.140Z,8.95
2022-08-17T14:53:06.839Z,17.38
2022-08-17T14:55:52.246Z,11.95
2022-08-17T14:58:37.669Z,8.57
2022-08-17T15:01:25.619Z,9.52
2022-08-17T15:04:10.908Z,12.55
2022-08-17T15:06:56.362Z,13.25
2022-08-17T15:09:41.542Z,8.88
2022-08-17T15:12:32.033Z,11.07
2022-08-17T15:15:18.243Z,8.25
2022-08-17T15:18:03.991Z,10.93
2022-08-17T15:20:49.672Z,13.43
2022-08-17T15:23:35.591Z,8.73
2022-08-17T15:26:26.043Z,8.50
2022-08-17T15:29:11.623Z,10.00
2022-08-17T15:32:00.625Z,9.82
2022-08-17T15:34:45.902Z,8.63
2022-08-17T15:37:31.386Z,7.53
2022-08-17T15:40:16.521Z,7.43
2022-08-17T15:43:10.259Z,6.57
2022-08-17T15:46:06.586Z,10.55
2022-08-17T15:48:54.415Z,8.70
2022-08-17T15:51:39.425Z,8.25
2022-08-17T15:54:24.781Z,10.05
2022-08-17T15:57:16.853Z,14.93
2022-08-17T16:00:03.466Z,8.48
2022-08-17T16:03:45.010Z,9.70
2022-08-17T16:05:53.870Z,8.38
2022-08-17T16:08:40.551Z,7.18
2022-08-17T16:11:25.588Z,10.23
2022-08-17T16:14:10.892Z,10.32
2022-08-17T16:16:59.851Z,9.90
2022-08-17T16:19:45.451Z,9.45
2022-08-17T16:22:44.120Z,11.70
2022-08-17T16:25:52.169Z,8.00
2022-08-17T16:28:36.703Z,8.27
2022-08-17T16:31:22.726Z,9.68
2022-08-17T16:34:17.670Z,8.27
2022-08-17T16:37:03.853Z,10.73
2022-08-17T16:39:49.348Z,10.88
2022-08-17T16:42:36.061Z,13.57
2022-08-17T16:45:27.710Z,20.45
2022-08-17T16:48:12.759Z,10.90
2022-08-17T16:51:03.042Z,11.10
2022-08-17T16:53:57.850Z,13.95
2022-08-17T16:56:44.705Z,14.27
2022-08-17T16:59:30.782Z,7.72
2022-08-17T17:02:33.883Z,6.97
2022-08-17T17:05:46.709Z,9.73
2022-08-17T17:08:51.090Z,9.27
2022-08-17T17:11:50.697Z,11.70
2022-08-17T17:14:40.012Z,9.73
2022-08-17T17:17:34.979Z,11.75
2022-08-17T17:20:26.607Z,13.98
2022-08-17T17:23:26.381Z,16.08
2022-08-17T17:26:29.873Z,16.70
2022-08-17T17:30:08.807Z,18.08
2022-08-17T17:33:14.358Z,18.60
2022-08-17T17:36:05.142Z,19.15
2022-08-17T17:38:54.158Z,25.50
2022-08-17T17:41:51.325Z,22.45
2022-08-17T17:44:48.302Z,19.90
2022-08-17T17:47:36.116Z,23.25
2022-08-17T17:50:32.855Z,20.23
2022-08-17T17:53:41.517Z,22.48
2022-08-17T17:56:43.263Z,19.73
2022-08-17T17:59:44.398Z,23.02
2022-08-17T18:02:52.876Z,23.90
2022-08-17T18:06:19.005Z,24.58
2022-08-17T18:09:39.162Z,24.60
2022-08-17T18:12:50.605Z,24.85
2022-08-17T18:15:56.192Z,25.02
2022-08-17T18:18:48.797Z,23.45
2022-08-17T18:21:40.755Z,25.88
2022-08-17T18:24:32.460Z,24.02
2022-08-17T18:27:22.663Z,25.85
2022-08-17T18:30:14.274Z,26.60
2022-08-17T18:33:29.187Z,24.70
2022-08-17T18:36:28.732Z,24.98
2022-08-17T18:39:19.504Z,26.35
2022-08-17T18:42:24.848Z,23.80
2022-08-17T18:45:10.118Z,26.52
2022-08-17T18:47:56.009Z,31.50
2022-08-17T18:50:41.531Z,26.02
2022-08-17T18:53:35.810Z,26.80
2022-08-17T18:56:31.575Z,31.05
2022-08-17T18:59:43.319Z,31.15
2022-08-17T19:02:44.262Z,27.48
2022-08-17T19:05:40.694Z,30.77
2022-08-17T19:08:28.568Z,31.52
2022-08-17T19:11:25.678Z,28.88
2022-08-17T19:14:13.429Z,26.35
2022-08-17T19:17:16.711Z,31.98
2022-08-17T19:20:10.742Z,28.50
2022-08-17T19:23:10.083Z,29.33
2022-08-17T19:25:59.134Z,33.03
2022-08-17T19:28:58.341Z,27.45
2022-08-17T19:31:45.107Z,29.65
2022-08-17T19:34:34.603Z,34.53
2022-08-17T19:37:49.727Z,27.55
2022-08-17T19:40:55.057Z,27.45
2022-08-17T19:43:57.557Z,28.80
2022-08-17T19:47:30.760Z,27.83
2022-08-17T19:50:31.879Z,27.85
2022-08-17T19:53:36.723Z,35.03
2022-08-17T19:56:49.178Z,32.20
2022-08-17T19:59:56.252Z,31.20
2022-08-17T20:02:57.933Z,31.73
2022-08-17T20:06:11.642Z,32.05
2022-08-17T20:09:09.498Z,33.08
2022-08-17T20:12:01.379Z,35.92
2022-08-17T20:15:02.803Z,32.75
2022-08-17T20:17:48.482Z,31.35
2022-08-17T20:20:43.395Z,35.35
2022-08-17T20:24:03.002Z,35.40
2022-08-17T20:26:59.318Z,37.00
2022-08-17T20:30:06.156Z,37.00
2022-08-17T20:32:54.528Z,40.05
2022-08-17T20:35:59.373Z,41.03
2022-08-17T20:38:52.264Z,38.92
2022-08-17T20:42:23.526Z,41.13
2022-08-17T20:45:20.730Z,40.20
2022-08-17T20:51:46.000Z,40.97
2022-08-17T20:54:53.893Z,39.22
2022-08-17T20:57:39.157Z,46.35
2022-08-17T21:00:27.584Z,41.17
2022-08-17T21:03:50.938Z,40.35
2022-08-17T21:07:15.201Z,42.22
2022-08-17T21:10:17.864Z,40.33
2022-08-17T21:13:28.978Z,38.58
2022-08-17T21:16:36.051Z,42.55
2022-08-17T21:19:44.461Z,41.03
2022-08-17T21:23:10.094Z,41.22
2022-08-17T21:26:08.694Z,41.78
2022-08-17T21:29:30.878Z,42.88
2022-08-17T21:32:20.360Z,44.88
2022-08-17T21:35:26.515Z,44.17
2022-08-17T21:38:13.641Z,46.88
2022-08-17T21:40:58.621Z,42.28
2022-08-17T21:43:48.941Z,44.40
2022-08-17T21:46:38.340Z,43.97
2022-08-17T21:49:26.860Z,41.83
2022-08-17T21:52:15.183Z,40.80
2022-08-17T21:55:01.696Z,40.97
2022-08-17T21:58:13.359Z,47.15
2022-08-17T22:01:20.223Z,46.17
2022-08-17T22:04:17.691Z,44.20
2022-08-17T22:07:06.224Z,44.63
2022-08-17T22:09:51.663Z,42.90
2022-08-17T22:12:37.188Z,48.15
2022-08-17T22:15:22.438Z,41.20
2022-08-17T22:18:21.717Z,44.50
2022-08-17T22:21:07.757Z,43.17
2022-08-17T22:24:06.173Z,40.00
2022-08-17T22:27:10.915Z,42.65
2022-08-17T22:29:58.470Z,43.72
2022-08-17T22:32:46.613Z,40.72
2022-08-17T22:35:33.681Z,44.45
2022-08-17T22:38:18.712Z,40.67
2022-08-17T22:41:19.077Z,42.60
2022-08-17T22:44:16.543Z,43.35
2022-08-17T22:47:23.914Z,45.92
2022-08-17T22:50:22.327Z,44.15
2022-08-17T22:53:18.525Z,42.13
2022-08-17T22:56:04.939Z,49.88
2022-08-17T22:58:58.649Z,44.45
2022-08-17T23:02:05.917Z,44.85
2022-08-17T23:04:55.392Z,43.88
2022-08-17T23:07:43.290Z,45.83
2022-08-17T23:10:34.004Z,46.47
2022-08-17T23:13:19.549Z,44.88
2022-08-17T23:16:04.934Z,45.60
2022-08-17T23:18:51.169Z,43.80
2022-08-17T23:21:37.394Z,43.83
2022-08-17T23:24:25.322Z,46.08
2022-08-17T23:27:11.706Z,44.30
2022-08-17T23:29:57.361Z,45.92
2022-08-17T23:32:44.319Z,42.08
2022-08-17T23:35:38.898Z,45.58
2022-08-17T23:38:27.319Z,44.20
2022-08-17T23:41:19.044Z,59.58
2022-08-17T23:44:05.761Z,44.60
2022-08-17T23:46:52.063Z,40.17
2022-08-17T23:49:38.056Z,42.95
2022-08-17T23:52:23.052Z,45.03
2022-08-17T23:55:09.504Z,45.25
2022-08-17T23:57:54.830Z,52.40
